createdAt,value
2018-07-10T00:00:25.036Z,24.67
2018-07-10T00:01:05.576Z,24.62
2018-07-10T00:01:46.113Z,24.71
2018-07-10T00:02:26.632Z,24.64
2018-07-10T00:03:07.150Z,24.78
2018-07-10T00:03:47.683Z,24.67
2018-07-10T00:04:28.225Z,24.61
2018-07-10T00:05:08.749Z,24.65
2018-07-10T00:05:49.278Z,24.69
2018-07-10T00:06:29.855Z,24.71
2018-07-10T00:07:10.311Z,24.76
2018-07-10T00:07:50.860Z,24.73
2018-07-10T00:08:31.405Z,24.77
2018-07-10T00:09:11.914Z,24.73
2018-07-10T00:09:52.467Z,24.76
2018-07-10T00:10:32.983Z,24.77
2018-07-10T00:11:13.508Z,24.81
2018-07-10T00:11:54.043Z,24.77
2018-07-10T00:12:34.576Z,24.78
2018-07-10T00:13:15.149Z,24.57
2018-07-10T00:13:55.636Z,24.58
2018-07-10T00:14:36.163Z,24.55
2018-07-10T00:15:16.717Z,24.57
2018-07-10T00:15:57.237Z,24.53
2018-07-10T00:16:37.750Z,24.43
2018-07-10T00:17:18.272Z,24.45
2018-07-10T00:17:58.786Z,24.46
2018-07-10T00:18:39.313Z,24.47
2018-07-10T00:19:19.843Z,24.47
2018-07-10T00:20:00.356Z,24.47
2018-07-10T00:20:40.895Z,24.49
2018-07-10T00:21:21.423Z,24.58
2018-07-10T00:22:01.948Z,24.47
2018-07-10T00:22:42.474Z,24.42
2018-07-10T00:23:23.001Z,24.47
2018-07-10T00:24:03.517Z,24.4
2018-07-10T00:24:44.044Z,24.34
2018-07-10T00:25:24.564Z,24.3
2018-07-10T00:26:05.088Z,24.27
2018-07-10T00:26:45.600Z,24.39
2018-07-10T00:27:26.118Z,24.4
2018-07-10T00:28:06.633Z,24.39
2018-07-10T00:28:47.166Z,24.46
2018-07-10T00:29:27.681Z,24.37
2018-07-10T00:30:08.224Z,24.37
2018-07-10T00:30:48.734Z,24.46
2018-07-10T00:31:29.261Z,24.57
2018-07-10T00:32:09.784Z,24.53
2018-07-10T00:32:50.311Z,24.58
2018-07-10T00:33:30.822Z,24.57
2018-07-10T00:34:11.340Z,24.53
2018-07-10T00:34:51.879Z,24.55
2018-07-10T00:35:32.397Z,24.53
2018-07-10T00:36:13.008Z,24.5
2018-07-10T00:36:53.554Z,24.62
2018-07-10T00:37:34.070Z,24.55
2018-07-10T00:38:14.637Z,24.5
2018-07-10T00:38:55.149Z,24.58
2018-07-10T00:39:35.667Z,24.61
2018-07-10T00:40:16.182Z,24.62
2018-07-10T00:40:56.732Z,24.53
2018-07-10T00:41:37.303Z,24.52
2018-07-10T00:42:17.839Z,24.49
2018-07-10T00:42:58.366Z,24.55
2018-07-10T00:43:38.901Z,24.58
2018-07-10T00:44:19.456Z,24.46
2018-07-10T00:44:59.971Z,24.45
2018-07-10T00:45:40.491Z,24.35
2018-07-10T00:46:20.986Z,24.45
2018-07-10T00:47:01.528Z,24.5
2018-07-10T00:47:42.073Z,24.47
2018-07-10T00:48:22.576Z,24.39
2018-07-10T00:49:03.100Z,24.47
2018-07-10T00:49:43.637Z,24.52
2018-07-10T00:50:24.158Z,24.46
2018-07-10T00:51:04.689Z,24.4
2018-07-10T00:51:45.201Z,24.31
2018-07-10T00:52:25.719Z,24.31
2018-07-10T00:53:06.268Z,24.32
2018-07-10T00:53:46.793Z,24.3
2018-07-10T00:54:27.320Z,24.25
2018-07-10T00:55:07.871Z,24.35
2018-07-10T00:55:48.388Z,24.3
2018-07-10T00:56:28.906Z,24.25
2018-07-10T00:57:09.438Z,24.34
2018-07-10T00:57:49.978Z,24.3
2018-07-10T00:58:30.488Z,24.37
2018-07-10T00:59:11.003Z,24.35
2018-07-10T00:59:51.511Z,24.32
2018-07-10T01:00:32.030Z,24.3
2018-07-10T01:01:12.565Z,24.28
2018-07-10T01:01:53.109Z,24.32
2018-07-10T01:02:33.654Z,24.34
2018-07-10T01:03:14.188Z,24.25
2018-07-10T01:03:54.716Z,24.27
2018-07-10T01:04:35.236Z,24.24
2018-07-10T01:05:15.768Z,24.24
2018-07-10T01:05:56.298Z,24.27
2018-07-10T01:06:36.843Z,24.18
2018-07-10T01:07:17.369Z,24.24
2018-07-10T01:07:57.884Z,24.28
2018-07-10T01:08:38.419Z,24.32
2018-07-10T01:09:18.925Z,24.22
2018-07-10T01:09:59.463Z,24.21
2018-07-10T01:10:39.996Z,24.2
2018-07-10T01:11:20.525Z,24.27
2018-07-10T01:12:01.041Z,24.25
2018-07-10T01:12:41.569Z,24.16
2018-07-10T01:13:22.098Z,24.18
2018-07-10T01:14:02.623Z,24.13
2018-07-10T01:14:43.150Z,24.12
2018-07-10T01:15:23.698Z,24.21
2018-07-10T01:16:04.212Z,24.16
2018-07-10T01:16:44.744Z,24.13
2018-07-10T01:17:25.271Z,24.09
2018-07-10T01:18:05.807Z,24.13
2018-07-10T01:18:46.370Z,24.08
2018-07-10T01:19:26.840Z,24.12
2018-07-10T01:20:07.370Z,24.09
2018-07-10T01:20:47.891Z,24.16
2018-07-10T01:21:28.426Z,24.15
2018-07-10T01:22:08.955Z,24.13
2018-07-10T01:22:49.458Z,24.21
2018-07-10T01:23:29.983Z,24.2
2018-07-10T01:24:10.494Z,24.1
2018-07-10T01:24:51.030Z,24.09
2018-07-10T01:25:31.543Z,24.2
2018-07-10T01:26:12.082Z,24.21
2018-07-10T01:26:52.610Z,24.25
2018-07-10T01:27:33.133Z,24.27
2018-07-10T01:28:13.648Z,24.16
2018-07-10T01:28:54.175Z,24.16
2018-07-10T01:29:34.689Z,24.13
2018-07-10T01:30:15.226Z,24.24
2018-07-10T01:30:55.762Z,24.15
2018-07-10T01:31:36.308Z,24.18
2018-07-10T01:32:16.826Z,24.16
2018-07-10T01:32:57.365Z,24.13
2018-07-10T01:33:37.917Z,24.1
2018-07-10T01:34:18.408Z,24.16
2018-07-10T01:34:58.954Z,24.15
2018-07-10T01:35:39.471Z,24.05
2018-07-10T01:36:19.990Z,24.05
2018-07-10T01:37:00.515Z,24.06
2018-07-10T01:37:41.027Z,24
2018-07-10T01:38:21.559Z,24.08
2018-07-10T01:39:02.073Z,24.13
2018-07-10T01:39:42.595Z,24.05
2018-07-10T01:40:23.118Z,24.08
2018-07-10T01:41:03.642Z,24.16
2018-07-10T01:41:44.158Z,24.18
2018-07-10T01:42:24.682Z,24.03
2018-07-10T01:43:05.195Z,24.15
2018-07-10T01:43:45.727Z,24.05
2018-07-10T01:44:26.255Z,24.15
2018-07-10T01:45:06.764Z,24.05
2018-07-10T01:45:47.288Z,24.08
2018-07-10T01:46:27.812Z,24.12
2018-07-10T01:47:08.333Z,24.13
2018-07-10T01:47:48.863Z,24.1
2018-07-10T01:48:29.393Z,24.15
2018-07-10T01:49:09.929Z,23.95
2018-07-10T01:49:50.437Z,24
2018-07-10T01:50:30.960Z,24.06
2018-07-10T01:51:11.488Z,23.97
2018-07-10T01:51:52.008Z,23.98
2018-07-10T01:52:32.532Z,23.98
2018-07-10T01:53:13.058Z,24.08
2018-07-10T01:53:53.606Z,24.08
2018-07-10T01:54:34.091Z,24.02
2018-07-10T01:55:14.632Z,24.08
2018-07-10T01:55:55.179Z,24.02
2018-07-10T01:56:35.719Z,24.02
2018-07-10T01:57:16.224Z,24.09
2018-07-10T01:57:56.760Z,24.13
2018-07-10T01:58:37.287Z,24.06
2018-07-10T01:59:17.848Z,24.06
2018-07-10T01:59:58.332Z,24.12
2018-07-10T02:00:38.849Z,24.08
2018-07-10T02:01:19.386Z,24.09
2018-07-10T02:01:59.921Z,24.16
2018-07-10T02:02:40.428Z,24.13
2018-07-10T02:03:20.967Z,24.05
2018-07-10T02:04:01.485Z,24.06
2018-07-10T02:04:42.043Z,24.05
2018-07-10T02:05:22.580Z,24.02
2018-07-10T02:06:03.118Z,24.09
2018-07-10T02:06:43.630Z,24.12
2018-07-10T02:07:24.988Z,24.09
2018-07-10T02:08:05.538Z,24.09
2018-07-10T02:08:46.064Z,23.97
2018-07-10T02:09:26.599Z,24.03
2018-07-10T02:10:07.122Z,24.08
2018-07-10T02:10:47.639Z,24.09
2018-07-10T02:11:28.184Z,24.03
2018-07-10T02:12:08.664Z,23.84
2018-07-10T02:12:49.196Z,23.8
2018-07-10T02:13:29.708Z,23.83
2018-07-10T02:14:10.349Z,23.8
2018-07-10T02:14:50.755Z,23.94
2018-07-10T02:15:31.304Z,23.85
2018-07-10T02:16:11.834Z,23.83
2018-07-10T02:16:52.363Z,23.87
2018-07-10T02:17:32.888Z,23.9
2018-07-10T02:18:13.410Z,23.95
2018-07-10T02:18:53.937Z,23.91
2018-07-10T02:19:34.442Z,23.95
2018-07-10T02:20:14.960Z,23.88
2018-07-10T02:20:55.484Z,23.88
2018-07-10T02:21:36.008Z,23.87
2018-07-10T02:22:16.556Z,23.8
2018-07-10T02:22:57.084Z,23.83
2018-07-10T02:23:37.610Z,23.9
2018-07-10T02:24:18.142Z,23.76
2018-07-10T02:24:58.653Z,23.72
2018-07-10T02:25:39.185Z,23.7
2018-07-10T02:26:19.690Z,23.68
2018-07-10T02:27:00.239Z,23.65
2018-07-10T02:27:40.756Z,23.73
2018-07-10T02:28:21.286Z,23.6
2018-07-10T02:29:01.818Z,23.63
2018-07-10T02:29:42.335Z,23.63
2018-07-10T02:30:22.858Z,23.55
2018-07-10T02:31:03.388Z,23.61
2018-07-10T02:31:43.906Z,23.54
2018-07-10T02:32:24.441Z,23.53
2018-07-10T02:33:04.961Z,23.57
2018-07-10T02:33:45.490Z,23.57
2018-07-10T02:34:26.003Z,23.7
2018-07-10T02:35:06.528Z,23.83
2018-07-10T02:35:47.054Z,23.7
2018-07-10T02:36:27.580Z,23.7
2018-07-10T02:37:08.119Z,23.72
2018-07-10T02:37:48.633Z,23.55
2018-07-10T02:38:29.145Z,23.61
2018-07-10T02:39:09.702Z,23.6
2018-07-10T02:39:50.239Z,23.53
2018-07-10T02:40:30.770Z,23.61
2018-07-10T02:41:11.319Z,23.6
2018-07-10T02:41:51.840Z,23.6
2018-07-10T02:42:32.351Z,23.66
2018-07-10T02:43:12.869Z,23.6
2018-07-10T02:43:53.375Z,23.48
2018-07-10T02:44:33.889Z,23.43
2018-07-10T02:45:14.409Z,23.36
2018-07-10T02:45:54.942Z,23.38
2018-07-10T02:46:35.460Z,23.48
2018-07-10T02:47:15.998Z,23.32
2018-07-10T02:47:56.540Z,23.25
2018-07-10T02:48:37.060Z,23.32
2018-07-10T02:49:17.587Z,23.23
2018-07-10T02:49:58.111Z,23.27
2018-07-10T02:50:38.660Z,23.33
2018-07-10T02:51:19.166Z,23.28
2018-07-10T02:51:59.693Z,23.28
2018-07-10T02:52:40.214Z,23.31
2018-07-10T02:53:20.728Z,23.42
2018-07-10T02:54:01.260Z,23.42
2018-07-10T02:54:41.769Z,23.33
2018-07-10T02:55:22.309Z,23.47
2018-07-10T02:56:02.833Z,23.25
2018-07-10T02:56:43.364Z,23.33
2018-07-10T02:57:23.872Z,23.33
2018-07-10T02:58:04.405Z,23.4
2018-07-10T02:58:44.939Z,23.47
2018-07-10T02:59:25.472Z,23.48
2018-07-10T03:00:05.999Z,23.43
2018-07-10T03:00:46.529Z,23.35
2018-07-10T03:01:27.054Z,23.31
2018-07-10T03:02:07.586Z,23.36
2018-07-10T03:02:48.109Z,23.28
2018-07-10T03:03:28.646Z,23.27
2018-07-10T03:04:09.212Z,23.31
2018-07-10T03:04:49.740Z,23.38
2018-07-10T03:05:30.264Z,23.36
2018-07-10T03:06:10.790Z,23.36
2018-07-10T03:06:51.312Z,23.33
2018-07-10T03:07:31.839Z,23.36
2018-07-10T03:08:12.369Z,23.43
2018-07-10T03:08:52.899Z,23.43
2018-07-10T03:09:33.425Z,23.47
2018-07-10T03:10:13.935Z,23.51
2018-07-10T03:10:54.464Z,23.46
2018-07-10T03:11:34.996Z,23.54
2018-07-10T03:12:15.523Z,23.51
2018-07-10T03:12:56.038Z,23.6
2018-07-10T03:13:36.573Z,23.63
2018-07-10T03:14:17.067Z,23.58
2018-07-10T03:14:57.590Z,23.33
2018-07-10T03:15:38.122Z,23.38
2018-07-10T03:16:18.644Z,23.39
2018-07-10T03:16:59.174Z,23.4
2018-07-10T03:17:39.710Z,23.46
2018-07-10T03:18:20.226Z,23.4
2018-07-10T03:19:00.758Z,23.4
2018-07-10T03:19:41.283Z,23.4
2018-07-10T03:20:21.811Z,23.42
2018-07-10T03:21:02.323Z,23.42
2018-07-10T03:21:42.842Z,23.43
2018-07-10T03:22:23.369Z,23.47
2018-07-10T03:23:03.891Z,23.39
2018-07-10T03:23:44.414Z,23.39
2018-07-10T03:24:24.951Z,23.39
2018-07-10T03:25:05.471Z,23.42
2018-07-10T03:25:46.032Z,23.39
2018-07-10T03:26:26.512Z,23.4
2018-07-10T03:27:07.031Z,23.43
2018-07-10T03:27:47.568Z,23.39
2018-07-10T03:28:29.027Z,23.48
2018-07-10T03:29:08.600Z,23.4
2018-07-10T03:29:49.114Z,23.42
2018-07-10T03:30:29.636Z,23.36
2018-07-10T03:31:10.143Z,23.5
2018-07-10T03:31:50.677Z,23.4
2018-07-10T03:32:31.194Z,23.5
2018-07-10T03:33:11.709Z,23.38
2018-07-10T03:33:52.239Z,23.35
2018-07-10T03:34:32.874Z,23.35
2018-07-10T03:35:13.346Z,23.4
2018-07-10T03:35:53.897Z,23.48
2018-07-10T03:36:34.424Z,23.42
2018-07-10T03:37:14.962Z,23.48
2018-07-10T03:37:55.481Z,23.42
2018-07-10T03:38:36.003Z,23.46
2018-07-10T03:39:16.520Z,23.46
2018-07-10T03:39:57.054Z,23.5
2018-07-10T03:40:37.579Z,23.48
2018-07-10T03:41:18.097Z,23.5
2018-07-10T03:41:58.619Z,23.47
2018-07-10T03:42:39.164Z,23.47
2018-07-10T03:43:19.680Z,23.39
2018-07-10T03:44:01.061Z,23.42
2018-07-10T03:44:40.936Z,23.43
2018-07-10T03:45:21.442Z,23.4
2018-07-10T03:46:01.970Z,23.51
2018-07-10T03:46:42.482Z,23.5
2018-07-10T03:47:23.001Z,23.39
2018-07-10T03:48:03.523Z,23.51
2018-07-10T03:48:44.039Z,23.4
2018-07-10T03:49:24.577Z,23.42
2018-07-10T03:50:05.099Z,23.31
2018-07-10T03:50:45.626Z,23.23
2018-07-10T03:51:26.156Z,23.31
2018-07-10T03:52:06.667Z,23.17
2018-07-10T03:52:47.210Z,23.09
2018-07-10T03:53:27.734Z,22.98
2018-07-10T03:54:08.271Z,22.92
2018-07-10T03:54:48.800Z,23.1
2018-07-10T03:55:29.328Z,23
2018-07-10T03:56:09.855Z,22.92
2018-07-10T03:56:50.379Z,22.82
2018-07-10T03:57:30.936Z,22.9
2018-07-10T03:58:11.425Z,22.8
2018-07-10T03:58:51.985Z,22.83
2018-07-10T03:59:32.516Z,22.85
2018-07-10T04:00:13.091Z,22.88
2018-07-10T04:00:53.620Z,22.76
2018-07-10T04:01:34.174Z,22.73
2018-07-10T04:02:14.674Z,22.77
2018-07-10T04:02:55.220Z,22.8
2018-07-10T04:03:35.761Z,22.9
2018-07-10T04:04:16.289Z,22.88
2018-07-10T04:04:56.890Z,22.76
2018-07-10T04:05:37.412Z,22.79
2018-07-10T04:06:17.936Z,22.76
2018-07-10T04:06:58.461Z,22.83
2018-07-10T04:07:39.110Z,22.83
2018-07-10T04:08:19.627Z,22.85
2018-07-10T04:09:00.213Z,22.91
2018-07-10T04:09:40.693Z,23.04
2018-07-10T04:10:21.217Z,22.97
2018-07-10T04:11:01.730Z,22.85
2018-07-10T04:11:42.310Z,22.88
2018-07-10T04:12:22.781Z,22.97
2018-07-10T04:13:03.311Z,23
2018-07-10T04:13:43.830Z,22.91
2018-07-10T04:14:24.359Z,22.83
2018-07-10T04:15:04.884Z,22.8
2018-07-10T04:15:45.417Z,22.86
2018-07-10T04:16:25.954Z,22.83
2018-07-10T04:17:06.496Z,22.91
2018-07-10T04:17:47.080Z,22.83
2018-07-10T04:18:27.556Z,22.79
2018-07-10T04:19:08.111Z,22.88
2018-07-10T04:19:48.657Z,22.79
2018-07-10T04:20:29.173Z,22.77
2018-07-10T04:21:09.697Z,22.82
2018-07-10T04:21:50.226Z,22.85
2018-07-10T04:22:30.758Z,22.79
2018-07-10T04:23:11.286Z,22.76
2018-07-10T04:23:51.804Z,22.79
2018-07-10T04:24:32.402Z,22.7
2018-07-10T04:25:13.040Z,22.77
2018-07-10T04:25:53.528Z,22.77
2018-07-10T04:26:34.050Z,22.79
2018-07-10T04:27:14.571Z,22.77
2018-07-10T04:27:55.095Z,22.6
2018-07-10T04:28:35.600Z,22.61
2018-07-10T04:29:16.116Z,22.54
2018-07-10T04:29:56.653Z,22.65
2018-07-10T04:30:37.164Z,22.61
2018-07-10T04:31:17.694Z,22.58
2018-07-10T04:31:58.226Z,22.68
2018-07-10T04:32:39.427Z,22.72
2018-07-10T04:33:19.939Z,22.8
2018-07-10T04:34:00.456Z,22.88
2018-07-10T04:34:40.989Z,22.76
2018-07-10T04:35:21.515Z,22.98
2018-07-10T04:36:02.046Z,23.01
2018-07-10T04:36:42.565Z,22.97
2018-07-10T04:37:23.097Z,23.15
2018-07-10T04:38:03.617Z,22.97
2018-07-10T04:38:44.130Z,22.97
2018-07-10T04:39:24.658Z,22.91
2018-07-10T04:40:05.179Z,22.97
2018-07-10T04:40:45.695Z,22.88
2018-07-10T04:41:26.214Z,22.8
2018-07-10T04:42:06.733Z,22.79
2018-07-10T04:42:47.266Z,22.79
2018-07-10T04:43:27.823Z,22.76
2018-07-10T04:44:08.325Z,22.72
2018-07-10T04:44:48.876Z,22.88
2018-07-10T04:45:29.395Z,22.79
2018-07-10T04:46:09.909Z,22.86
2018-07-10T04:46:50.430Z,22.83
2018-07-10T04:47:30.948Z,22.76
2018-07-10T04:48:11.475Z,22.86
2018-07-10T04:48:51.991Z,22.86
2018-07-10T04:49:32.515Z,22.92
2018-07-10T04:50:13.052Z,22.94
2018-07-10T04:50:53.556Z,22.88
2018-07-10T04:51:34.077Z,22.83
2018-07-10T04:52:14.600Z,22.92
2018-07-10T04:52:55.118Z,22.83
2018-07-10T04:53:35.635Z,22.85
2018-07-10T04:54:16.173Z,22.91
2018-07-10T04:54:56.705Z,22.9
2018-07-10T04:55:37.231Z,22.95
2018-07-10T04:56:17.745Z,23.02
2018-07-10T04:56:58.279Z,23
2018-07-10T04:57:38.795Z,22.85
2018-07-10T04:58:19.334Z,22.85
2018-07-10T04:58:59.864Z,22.86
2018-07-10T04:59:40.394Z,22.9
2018-07-10T05:00:20.950Z,22.97
2018-07-10T05:01:01.504Z,22.94
2018-07-10T05:01:42.062Z,23.04
2018-07-10T05:02:22.616Z,23
2018-07-10T05:03:03.132Z,23.13
2018-07-10T05:03:43.679Z,23.15
2018-07-10T05:04:24.198Z,23.13
2018-07-10T05:05:04.724Z,23.13
2018-07-10T05:05:45.281Z,23.13
2018-07-10T05:06:25.763Z,23.12
2018-07-10T05:07:06.296Z,23.12
2018-07-10T05:07:46.823Z,23.07
2018-07-10T05:08:27.347Z,23.1
2018-07-10T05:09:07.921Z,22.98
2018-07-10T05:09:48.419Z,23
2018-07-10T05:10:28.937Z,23
2018-07-10T05:11:09.484Z,23.15
2018-07-10T05:11:50.019Z,23.04
2018-07-10T05:12:30.542Z,23.2
2018-07-10T05:13:11.054Z,23.2
2018-07-10T05:13:51.572Z,23.23
2018-07-10T05:14:32.096Z,23.28
2018-07-10T05:15:12.612Z,23.33
2018-07-10T05:15:53.132Z,23.27
2018-07-10T05:16:33.649Z,23.36
2018-07-10T05:17:14.186Z,23.36
2018-07-10T05:17:54.707Z,23.43
2018-07-10T05:18:35.236Z,23.33
2018-07-10T05:19:15.746Z,23.47
2018-07-10T05:19:56.296Z,23.39
2018-07-10T05:20:36.822Z,23.4
2018-07-10T05:21:17.369Z,23.42
2018-07-10T05:21:57.887Z,23.36
2018-07-10T05:22:38.419Z,23.36
2018-07-10T05:23:18.961Z,23.46
2018-07-10T05:23:59.467Z,23.46
2018-07-10T05:24:39.988Z,23.38
2018-07-10T05:25:20.505Z,23.47
2018-07-10T05:26:01.033Z,23.36
2018-07-10T05:26:41.543Z,23.5
2018-07-10T05:27:22.064Z,23.51
2018-07-10T05:28:02.578Z,23.51
2018-07-10T05:28:43.157Z,23.51
2018-07-10T05:29:23.595Z,23.4
2018-07-10T05:30:04.123Z,23.51
2018-07-10T05:30:44.645Z,23.42
2018-07-10T05:31:25.176Z,23.48
2018-07-10T05:32:05.692Z,23.5
2018-07-10T05:32:46.231Z,23.48
2018-07-10T05:34:24.087Z,23.55
2018-07-10T05:35:04.628Z,23.6
2018-07-10T05:35:45.137Z,23.58
2018-07-10T05:36:25.683Z,23.63
2018-07-10T05:37:06.253Z,23.55
2018-07-10T05:37:46.786Z,23.51
2018-07-10T05:38:27.334Z,23.53
2018-07-10T05:39:07.857Z,23.6
2018-07-10T05:39:48.380Z,23.54
2018-07-10T05:40:28.906Z,23.58
2018-07-10T05:41:09.426Z,23.6
2018-07-10T05:41:49.940Z,23.54
2018-07-10T05:42:30.450Z,23.5
2018-07-10T05:43:10.967Z,23.57
2018-07-10T05:43:51.503Z,23.66
2018-07-10T05:44:32.012Z,23.66
2018-07-10T05:45:12.534Z,23.7
2018-07-10T05:45:53.040Z,23.76
2018-07-10T05:46:33.635Z,23.8
2018-07-10T05:47:14.105Z,23.76
2018-07-10T05:47:54.628Z,23.73
2018-07-10T05:48:35.168Z,23.69
2018-07-10T05:49:15.725Z,23.8
2018-07-10T05:49:56.247Z,23.84
2018-07-10T05:50:36.746Z,23.9
2018-07-10T05:51:17.270Z,24
2018-07-10T05:51:57.843Z,24
2018-07-10T05:52:38.349Z,24.06
2018-07-10T05:53:18.885Z,24.08
2018-07-10T05:53:59.408Z,24.03
2018-07-10T05:54:39.930Z,24.02
2018-07-10T05:55:20.429Z,24.02
2018-07-10T05:56:00.953Z,24.02
2018-07-10T05:56:41.485Z,24.05
2018-07-10T05:57:21.968Z,24.13
2018-07-10T05:58:02.431Z,24.18
2018-07-10T05:58:42.961Z,24.27
2018-07-10T05:59:23.413Z,24.22
2018-07-10T06:00:03.950Z,24.2
2018-07-10T06:00:44.443Z,24.2
2018-07-10T06:01:24.937Z,24.12
2018-07-10T06:02:05.446Z,24.34
2018-07-10T06:02:45.920Z,24.21
2018-07-10T06:03:26.450Z,24.3
2018-07-10T06:04:06.937Z,24.35
2018-07-10T06:04:47.445Z,24.31
2018-07-10T06:05:27.941Z,24.39
2018-07-10T06:06:08.441Z,24.4
2018-07-10T06:06:48.902Z,24.4
2018-07-10T06:07:29.401Z,24.45
2018-07-10T06:08:09.927Z,24.49
2018-07-10T06:08:50.425Z,24.46
2018-07-10T06:09:30.883Z,24.52
2018-07-10T06:10:11.631Z,24.65
2018-07-10T06:10:52.151Z,24.67
2018-07-10T06:11:32.632Z,24.67
2018-07-10T06:12:13.139Z,24.73
2018-07-10T06:12:53.634Z,24.68
2018-07-10T06:13:34.116Z,24.68
2018-07-10T06:14:14.619Z,24.65
2018-07-10T06:14:55.154Z,24.6
2018-07-10T06:15:35.687Z,24.5
2018-07-10T06:16:16.260Z,24.58
2018-07-10T06:16:56.716Z,24.49
2018-07-10T06:17:37.237Z,24.4
2018-07-10T06:18:17.765Z,24.4
2018-07-10T06:18:58.353Z,24.39
2018-07-10T06:19:38.834Z,24.31
2018-07-10T06:20:19.317Z,24.34
2018-07-10T06:20:59.834Z,24.37
2018-07-10T06:21:40.418Z,24.34
2018-07-10T06:22:20.809Z,24.31
2018-07-10T06:23:01.264Z,24.24
2018-07-10T06:23:41.790Z,24.21
2018-07-10T06:24:22.327Z,24.28
2018-07-10T06:25:02.830Z,24.15
2018-07-10T06:25:43.410Z,24.13
2018-07-10T06:26:23.897Z,24.25
2018-07-10T06:27:04.409Z,24.24
2018-07-10T06:27:44.889Z,24.13
2018-07-10T06:28:25.405Z,24.25
2018-07-10T06:29:06.004Z,24.28
2018-07-10T06:29:46.531Z,24.3
2018-07-10T06:30:27.067Z,24.25
2018-07-10T06:31:07.525Z,24.25
2018-07-10T06:31:48.027Z,24.28
2018-07-10T06:32:28.690Z,24.31
2018-07-10T06:33:09.009Z,24.39
2018-07-10T06:33:49.471Z,24.47
2018-07-10T06:34:29.984Z,24.57
2018-07-10T06:35:10.480Z,24.71
2018-07-10T06:35:51.016Z,24.65
2018-07-10T06:36:31.522Z,24.68
2018-07-10T06:37:12.085Z,24.52
2018-07-10T06:37:52.594Z,24.46
2018-07-10T06:38:33.127Z,24.39
2018-07-10T06:39:13.631Z,24.39
2018-07-10T06:39:54.171Z,24.47
2018-07-10T06:40:34.721Z,24.32
2018-07-10T06:41:15.266Z,24.35
2018-07-10T06:41:55.749Z,24.35
2018-07-10T06:42:36.263Z,24.61
2018-07-10T06:43:16.788Z,24.46
2018-07-10T06:43:57.296Z,24.49
2018-07-10T06:44:37.820Z,24.6
2018-07-10T06:45:18.344Z,24.67
2018-07-10T06:45:58.901Z,24.88
2018-07-10T06:46:39.380Z,24.83
2018-07-10T06:47:19.934Z,24.76
2018-07-10T06:48:00.450Z,24.77
2018-07-10T06:48:41.022Z,24.68
2018-07-10T06:49:21.540Z,24.52
2018-07-10T06:50:02.075Z,24.47
2018-07-10T06:50:42.594Z,24.43
2018-07-10T06:51:23.115Z,24.42
2018-07-10T06:52:03.643Z,24.52
2018-07-10T06:52:44.328Z,24.67
2018-07-10T06:53:25.244Z,24.78
2018-07-10T06:54:05.193Z,24.8
2018-07-10T06:54:45.718Z,24.81
2018-07-10T06:55:26.354Z,24.93
2018-07-10T06:56:06.854Z,24.9
2018-07-10T06:56:47.395Z,24.99
2018-07-10T06:57:27.914Z,25.03
2018-07-10T06:58:08.433Z,25.14
2018-07-10T06:58:48.986Z,25.23
2018-07-10T06:59:29.467Z,25.32
2018-07-10T07:00:09.991Z,25.33
2018-07-10T07:00:50.530Z,25.33
2018-07-10T07:01:31.033Z,25.46
2018-07-10T07:02:11.536Z,25.45
2018-07-10T07:02:52.064Z,25.42
2018-07-10T07:03:32.567Z,25.52
2018-07-10T07:04:13.102Z,25.38
2018-07-10T07:04:53.611Z,25.39
2018-07-10T07:05:34.137Z,25.47
2018-07-10T07:06:14.662Z,25.45
2018-07-10T07:06:55.195Z,25.55
2018-07-10T07:07:35.747Z,25.54
2018-07-10T07:08:16.264Z,25.47
2018-07-10T07:08:56.780Z,25.45
2018-07-10T07:09:37.304Z,25.35
2018-07-10T07:10:17.839Z,25.45
2018-07-10T07:10:58.359Z,25.4
2018-07-10T07:11:38.880Z,25.52
2018-07-10T07:12:19.417Z,25.45
2018-07-10T07:12:59.933Z,25.55
2018-07-10T07:13:40.476Z,25.52
2018-07-10T07:14:21.005Z,25.38
2018-07-10T07:15:01.537Z,25.43
2018-07-10T07:15:42.091Z,25.32
2018-07-10T07:16:22.621Z,25.32
2018-07-10T07:17:03.138Z,25.27
2018-07-10T07:17:43.661Z,25.39
2018-07-10T07:18:24.199Z,25.43
2018-07-10T07:19:04.718Z,25.36
2018-07-10T07:19:45.228Z,25.43
2018-07-10T07:20:25.773Z,25.43
2018-07-10T07:21:06.315Z,25.45
2018-07-10T07:21:46.829Z,25.51
2018-07-10T07:22:27.364Z,25.65
2018-07-10T07:23:07.877Z,25.67
2018-07-10T07:23:48.436Z,25.77
2018-07-10T07:24:28.885Z,25.91
2018-07-10T07:25:09.400Z,25.9
2018-07-10T07:25:49.917Z,26.02
2018-07-10T07:26:30.452Z,26.01
2018-07-10T07:27:11.003Z,25.79
2018-07-10T07:27:51.515Z,25.77
2018-07-10T07:28:32.055Z,25.67
2018-07-10T07:29:12.589Z,25.73
2018-07-10T07:29:53.107Z,25.67
2018-07-10T07:30:33.594Z,25.61
2018-07-10T07:31:14.103Z,25.52
2018-07-10T07:31:54.629Z,25.76
2018-07-10T07:32:35.166Z,25.9
2018-07-10T07:33:15.702Z,25.99
2018-07-10T07:33:56.235Z,26.17
2018-07-10T07:34:36.742Z,26.43
2018-07-10T07:35:17.272Z,26.25
2018-07-10T07:35:57.790Z,26.15
2018-07-10T07:36:38.328Z,26.17
2018-07-10T07:37:18.859Z,26.13
2018-07-10T07:37:59.398Z,26.01
2018-07-10T07:38:39.936Z,25.98
2018-07-10T07:39:20.462Z,25.83
2018-07-10T07:40:01.002Z,25.75
2018-07-10T07:40:41.548Z,25.64
2018-07-10T07:41:22.069Z,25.65
2018-07-10T07:42:02.591Z,25.51
2018-07-10T07:42:43.129Z,25.39
2018-07-10T07:43:23.665Z,25.35
2018-07-10T07:44:04.375Z,25.14
2018-07-10T07:44:44.761Z,25.1
2018-07-10T07:45:25.302Z,24.98
2018-07-10T07:46:05.812Z,24.95
2018-07-10T07:46:46.343Z,24.65
2018-07-10T07:47:26.876Z,24.69
2018-07-10T07:48:07.426Z,24.65
2018-07-10T07:48:47.925Z,24.53
2018-07-10T07:49:28.453Z,24.45
2018-07-10T07:50:08.985Z,24.47
2018-07-10T07:50:49.537Z,24.31
2018-07-10T07:51:29.995Z,24.22
2018-07-10T07:52:10.491Z,24.25
2018-07-10T07:52:50.987Z,24.06
2018-07-10T07:53:31.489Z,24.15
2018-07-10T07:54:12.022Z,24.15
2018-07-10T07:54:52.561Z,24.3
2018-07-10T07:55:33.062Z,24.24
2018-07-10T07:56:13.595Z,24.16
2018-07-10T07:56:54.127Z,24.1
2018-07-10T07:57:34.660Z,23.97
2018-07-10T07:58:15.191Z,23.87
2018-07-10T07:58:55.714Z,23.72
2018-07-10T07:59:36.228Z,23.84
2018-07-10T08:00:16.741Z,23.78
2018-07-10T08:00:57.282Z,23.93
2018-07-10T08:01:37.830Z,23.91
2018-07-10T08:02:18.348Z,23.94
2018-07-10T08:02:58.904Z,23.91
2018-07-10T08:03:39.416Z,23.95
2018-07-10T08:04:19.947Z,23.94
2018-07-10T08:05:00.497Z,24
2018-07-10T08:05:40.999Z,24.1
2018-07-10T08:06:21.595Z,24.25
2018-07-10T08:07:02.104Z,24.13
2018-07-10T08:07:42.629Z,24.25
2018-07-10T08:08:23.160Z,24.24
2018-07-10T08:09:03.694Z,24.12
2018-07-10T08:09:44.209Z,24.27
2018-07-10T08:10:24.735Z,24.28
2018-07-10T08:11:05.252Z,24.39
2018-07-10T08:11:45.778Z,24.37
2018-07-10T08:12:26.295Z,24.39
2018-07-10T08:13:06.838Z,24.35
2018-07-10T08:13:47.335Z,24.49
2018-07-10T08:14:27.897Z,24.68
2018-07-10T08:15:08.409Z,24.83
2018-07-10T08:15:48.861Z,25
2018-07-10T08:16:29.374Z,24.98
2018-07-10T08:17:09.894Z,24.9
2018-07-10T08:17:50.418Z,24.84
2018-07-10T08:18:30.986Z,24.91
2018-07-10T08:19:11.553Z,24.81
2018-07-10T08:19:52.074Z,24.81
2018-07-10T08:20:32.590Z,24.9
2018-07-10T08:21:13.112Z,24.99
2018-07-10T08:21:53.628Z,24.98
2018-07-10T08:22:34.154Z,25
2018-07-10T08:23:14.691Z,24.88
2018-07-10T08:23:55.213Z,24.93
2018-07-10T08:24:35.841Z,24.9
2018-07-10T08:25:16.286Z,24.81
2018-07-10T08:25:56.835Z,24.65
2018-07-10T08:26:37.339Z,24.67
2018-07-10T08:27:17.853Z,24.76
2018-07-10T08:27:58.377Z,24.68
2018-07-10T08:28:38.904Z,24.37
2018-07-10T08:29:19.453Z,24.49
2018-07-10T08:29:59.967Z,24.55
2018-07-10T08:30:40.479Z,24.42
2018-07-10T08:31:20.997Z,24.4
2018-07-10T08:32:01.520Z,24.06
2018-07-10T08:32:42.049Z,24.28
2018-07-10T08:33:22.582Z,24.12
2018-07-10T08:34:03.097Z,24.09
2018-07-10T08:34:43.597Z,24.21
2018-07-10T08:35:24.123Z,24.3
2018-07-10T08:36:04.676Z,24.12
2018-07-10T08:36:45.263Z,24.35
2018-07-10T08:37:25.791Z,24.3
2018-07-10T08:38:06.381Z,24.39
2018-07-10T08:38:46.893Z,24.13
2018-07-10T08:39:27.421Z,24.22
2018-07-10T08:40:07.953Z,24.16
2018-07-10T08:40:48.495Z,24.15
2018-07-10T08:41:29.023Z,24.18
2018-07-10T08:42:09.551Z,24.15
2018-07-10T08:42:50.113Z,24.24
2018-07-10T08:43:30.646Z,24.24
2018-07-10T08:44:11.187Z,24.27
2018-07-10T08:44:51.708Z,23.97
2018-07-10T08:45:32.242Z,23.8
2018-07-10T08:46:12.749Z,24.09